Oslo Bulk 1 — 9V8766 — position and weather

sailwx.info

Track history (hours):
 
Tides and Currents Weather Stations Pressure Air Temp Water Temp Dewpoint Dewpoint Depression Visibility Wind Speed Wind Dir Waves Ship Positions

Oslo Bulk 1

Last reported at 2015-Apr-23 22:21 UTC. Time now 2015-May-03 09:48 UTC.
Position N 01°15' E 104°05'.
Warning: this ship's position is 9 days out of date.

Length 108 m; draft 5.6 m.

Type: Ship. MMSI: 564010000.

Date/timePositionNaut miles runAvg speedWind from/ knotsBaromVisibWave heightAir tempDewpointWater temp
2015-Apr-23 22:21N 01°15' E 104°05'911.7
2015-Apr-23 21:33N 01°13' E 103°55'78 9.7
2015-Apr-23 13:32N 01°41' E 102°43'3010.1
2015-Apr-23 10:33N 01°53' E 102°15'  
2015-Apr-18 21:32N 01°55' E 102°21'1511.6
2015-Apr-18 20:16N 01°49' E 102°35'912.0
2015-Apr-18 19:32N 01°45' E 102°43'1411.8
2015-Apr-18 18:19N 01°39' E 102°56'59 9.7
2015-Apr-18 12:12N 01°10' E 103°47'812.1
2015-Apr-18 11:32N 01°13' E 103°55'1211.2
2015-Apr-18 10:29N 01°16' E 104°06'  
Track history (hours):
 
Tides and Currents Weather Stations Pressure Air Temp Water Temp Dewpoint Dewpoint Depression Visibility Wind Speed Wind Dir Waves Ship Positions

Oslo Bulk 1

Last reported at 2015-Apr-23 22:21 UTC. Time now 2015-May-03 09:48 UTC.
Position N 01°15' E 104°05'.
Warning: this ship's position is 9 days out of date.

Length 108 m; draft 5.6 m.

Type: Ship. MMSI: 564010000.

Date/timePositionNaut miles runAvg speedWind from/ knotsBaromVisibWave heightAir tempDewpointWater temp
2015-Apr-23 22:21N 01°15' E 104°05'911.7
2015-Apr-23 21:33N 01°13' E 103°55'78 9.7
2015-Apr-23 13:32N 01°41' E 102°43'3010.1
2015-Apr-23 10:33N 01°53' E 102°15'  
2015-Apr-18 21:32N 01°55' E 102°21'1511.6
2015-Apr-18 20:16N 01°49' E 102°35'912.0
2015-Apr-18 19:32N 01°45' E 102°43'1411.8
2015-Apr-18 18:19N 01°39' E 102°56'59 9.7
2015-Apr-18 12:12N 01°10' E 103°47'812.1
2015-Apr-18 11:32N 01°13' E 103°55'1211.2
2015-Apr-18 10:29N 01°16' E 104°06'  

Dump ship's entire track history